Terminal Aerodrome Forecast
Issued by NWS Tulsa, OK

Home | Current Version | Previous Version | Text Only | Print | Product List | Glossary On
Versions: 1 2 3 4 5 6 7 8 9 10 11 12
000
FTUS44 KTSA 162320
TAFTUL
TAF
KTUL 162320Z 1700/1724 20014KT P6SM OVC200
     FM170300 17012KT P6SM OVC100
      TEMPO 1703/1706 6SM -RA OVC050
     FM170600 17008KT 4SM -RA OVC015
     FM171000 18008KT 4SM BR OVC015
     FM171800 18008KT P6SM OVC025=

USA.gov is the U.S. government's official web portal to all federal, state and local government web resources and services.